createdAt,value
2023-02-02T00:01:55.786Z,1.35
2023-02-02T00:04:59.048Z,2.00
2023-02-02T00:08:02.403Z,2.87
2023-02-02T00:11:07.198Z,2.78
2023-02-02T00:14:12.338Z,3.40
2023-02-02T00:17:15.688Z,2.60
2023-02-02T00:20:18.822Z,2.50
2023-02-02T00:23:21.825Z,2.03
2023-02-02T00:26:25.485Z,2.83
2023-02-02T00:29:32.623Z,2.28
2023-02-02T00:32:35.628Z,2.30
2023-02-02T00:35:43.264Z,2.25
2023-02-02T00:38:47.047Z,2.28
2023-02-02T00:41:50.157Z,2.70
2023-02-02T00:45:12.542Z,2.63
2023-02-02T00:48:16.276Z,1.90
2023-02-02T00:51:19.260Z,1.95
2023-02-02T00:54:22.331Z,1.90
2023-02-02T00:57:25.520Z,1.90
2023-02-02T01:00:30.055Z,2.20
2023-02-02T01:03:33.195Z,2.00
2023-02-02T01:06:36.581Z,2.13
2023-02-02T01:09:39.706Z,2.00
2023-02-02T01:12:43.429Z,2.03
2023-02-02T01:15:47.822Z,1.55
2023-02-02T01:18:52.088Z,1.67
2023-02-02T01:21:55.512Z,1.60
2023-02-02T01:24:58.646Z,1.70
2023-02-02T01:28:01.772Z,2.17
2023-02-02T01:31:11.562Z,1.67
2023-02-02T01:34:23.646Z,1.45
2023-02-02T01:37:26.660Z,1.30
2023-02-02T01:40:29.698Z,1.65
2023-02-02T01:43:55.016Z,1.15
2023-02-02T01:46:59.600Z,1.77
2023-02-02T01:50:04.260Z,1.40
2023-02-02T01:53:09.531Z,1.13
2023-02-02T01:56:29.483Z,1.27
2023-02-02T01:59:34.126Z,1.10
2023-02-02T02:02:40.706Z,1.23
2023-02-02T02:05:52.543Z,1.13
2023-02-02T02:09:00.319Z,1.27
2023-02-02T02:12:03.404Z,1.13
2023-02-02T02:15:25.965Z,1.30
2023-02-02T02:18:51.770Z,1.10
2023-02-02T02:22:21.497Z,1.17
2023-02-02T02:26:11.384Z,1.48
2023-02-02T02:30:02.037Z,1.35
2023-02-02T02:33:12.319Z,1.20
2023-02-02T02:36:27.005Z,1.38
2023-02-02T02:39:40.019Z,0.98
2023-02-02T02:42:49.823Z,1.40
2023-02-02T02:45:54.534Z,2.03
2023-02-02T02:49:02.107Z,0.88
2023-02-02T02:52:05.255Z,1.08
2023-02-02T02:55:11.690Z,0.90
2023-02-02T02:58:22.892Z,0.65
2023-02-02T03:01:35.861Z,0.70
2023-02-02T03:04:55.832Z,1.08
2023-02-02T03:08:11.348Z,0.93
2023-02-02T03:11:16.703Z,0.90
2023-02-02T03:14:20.355Z,2.10
2023-02-02T03:17:23.919Z,0.95
2023-02-02T03:20:28.878Z,0.55
2023-02-02T03:23:32.943Z,1.20
2023-02-02T03:29:40.222Z,1.10
2023-02-02T03:32:44.159Z,0.90
2023-02-02T03:35:49.138Z,0.60
2023-02-02T03:38:52.510Z,0.77
2023-02-02T03:41:56.058Z,0.77
2023-02-02T03:45:00.544Z,0.63
2023-02-02T03:48:06.076Z,0.60
2023-02-02T03:51:12.789Z,1.60
2023-02-02T03:54:16.669Z,0.75
2023-02-02T03:57:20.360Z,0.70
2023-02-02T04:00:24.161Z,1.13
2023-02-02T04:03:27.745Z,1.00
2023-02-02T04:06:34.160Z,0.60
2023-02-02T04:09:38.879Z,0.80
2023-02-02T04:12:42.758Z,0.98
2023-02-02T04:15:46.261Z,0.77
2023-02-02T04:18:50.081Z,1.20
2023-02-02T04:21:55.954Z,1.10
2023-02-02T04:24:59.388Z,0.93
2023-02-02T04:28:02.727Z,1.42
2023-02-02T04:31:06.364Z,1.27
2023-02-02T04:34:10.221Z,0.68
2023-02-02T04:37:15.137Z,0.77
2023-02-02T04:40:19.093Z,0.60
2023-02-02T04:43:22.484Z,0.85
2023-02-02T04:46:26.563Z,0.75
2023-02-02T04:49:30.434Z,0.60
2023-02-02T04:52:35.634Z,0.70
2023-02-02T04:55:40.225Z,1.00
2023-02-02T04:58:44.092Z,1.10
2023-02-02T05:01:48.259Z,1.08
2023-02-02T05:04:52.197Z,0.70
2023-02-02T05:07:56.983Z,0.80
2023-02-02T05:11:00.537Z,0.65
2023-02-02T05:14:04.072Z,0.60
2023-02-02T05:17:08.756Z,0.60
2023-02-02T05:20:16.641Z,0.60
2023-02-02T05:23:21.602Z,0.50
2023-02-02T05:26:27.376Z,0.47
2023-02-02T05:29:31.698Z,0.70
2023-02-02T05:32:35.143Z,0.65
2023-02-02T05:35:39.010Z,0.85
2023-02-02T05:38:43.779Z,0.85
2023-02-02T05:41:47.150Z,0.52
2023-02-02T05:44:50.526Z,0.50
2023-02-02T05:47:55.829Z,0.43
2023-02-02T05:51:03.298Z,0.40
2023-02-02T05:54:08.724Z,0.70
2023-02-02T05:57:12.376Z,0.65
2023-02-02T06:00:17.665Z,0.88
2023-02-02T06:03:21.319Z,0.63
2023-02-02T06:06:24.910Z,0.63
2023-02-02T06:09:29.663Z,0.70
2023-02-02T06:12:33.364Z,0.57
2023-02-02T06:15:37.450Z,0.70
2023-02-02T06:18:40.994Z,0.40
2023-02-02T06:21:44.375Z,1.38
2023-02-02T06:24:49.153Z,0.70
2023-02-02T06:27:56.241Z,0.50
2023-02-02T06:31:05.879Z,0.90
2023-02-02T06:34:13.522Z,0.47
2023-02-02T06:37:17.006Z,0.40
2023-02-02T06:40:22.591Z,0.60
2023-02-02T06:43:26.100Z,0.52
2023-02-02T06:46:29.762Z,0.28
2023-02-02T06:49:33.237Z,0.57
2023-02-02T06:52:36.827Z,0.40
2023-02-02T06:55:41.550Z,0.50
2023-02-02T06:58:45.578Z,0.63
2023-02-02T07:04:53.304Z,0.30
2023-02-02T07:07:56.770Z,0.95
2023-02-02T07:11:13.825Z,0.43
2023-02-02T07:14:20.037Z,0.70
2023-02-02T07:17:23.564Z,0.85
2023-02-02T07:20:27.326Z,1.40
2023-02-02T07:23:31.842Z,1.10
2023-02-02T07:26:37.510Z,1.20
2023-02-02T07:29:41.019Z,0.95
2023-02-02T07:32:48.583Z,0.70
2023-02-02T07:35:52.142Z,0.80
2023-02-02T07:38:57.390Z,0.68
2023-02-02T07:42:02.190Z,0.70
2023-02-02T07:45:24.571Z,0.90
2023-02-02T07:48:30.011Z,0.70
2023-02-02T07:51:33.868Z,0.50
2023-02-02T07:54:37.374Z,0.35
2023-02-02T07:57:42.782Z,0.80
2023-02-02T08:00:46.863Z,0.70
2023-02-02T08:06:54.398Z,0.38
2023-02-02T08:09:57.971Z,1.33
2023-02-02T08:13:02.905Z,1.10
2023-02-02T08:16:06.996Z,0.75
2023-02-02T08:19:11.655Z,0.50
2023-02-02T08:22:15.209Z,0.60
2023-02-02T08:25:18.786Z,0.77
2023-02-02T08:28:23.735Z,1.00
2023-02-02T08:31:30.277Z,0.80
2023-02-02T08:34:36.766Z,0.63
2023-02-02T08:37:40.123Z,0.40
2023-02-02T08:40:43.637Z,0.50
2023-02-02T08:43:48.456Z,0.73
2023-02-02T08:46:51.891Z,0.40
2023-02-02T08:49:55.253Z,1.23
2023-02-02T08:52:58.755Z,0.85
2023-02-02T08:56:04.014Z,1.00
2023-02-02T08:59:08.471Z,0.70
2023-02-02T09:02:13.783Z,0.40
2023-02-02T09:05:17.674Z,0.70
2023-02-02T09:08:21.071Z,0.70
2023-02-02T09:11:24.583Z,0.75
2023-02-02T09:14:29.404Z,0.70
2023-02-02T09:17:32.709Z,0.60
2023-02-02T09:20:36.416Z,0.80
2023-02-02T09:23:42.195Z,0.70
2023-02-02T09:26:46.650Z,0.70
2023-02-02T09:29:52.977Z,0.65
2023-02-02T09:32:56.073Z,0.35
2023-02-02T09:36:06.601Z,0.60
2023-02-02T09:39:12.670Z,0.65
2023-02-02T09:42:42.952Z,0.47
2023-02-02T09:46:01.117Z,0.70
2023-02-02T09:49:12.474Z,0.22
2023-02-02T09:52:22.876Z,0.60
2023-02-02T09:55:34.872Z,0.40
2023-02-02T09:58:48.574Z,0.90
2023-02-02T10:01:58.988Z,0.40
2023-02-02T10:05:11.144Z,0.50
2023-02-02T10:08:34.680Z,0.50
2023-02-02T10:11:47.233Z,0.40
2023-02-02T10:14:58.974Z,0.52
2023-02-02T10:18:14.906Z,0.40
2023-02-02T10:21:33.053Z,0.47
2023-02-02T10:24:37.120Z,0.68
2023-02-02T10:27:42.946Z,1.15
2023-02-02T10:30:55.049Z,0.57
2023-02-02T10:34:10.726Z,0.50
2023-02-02T10:37:28.091Z,0.98
2023-02-02T10:40:49.970Z,0.50
2023-02-02T10:44:14.949Z,0.55
2023-02-02T10:47:28.626Z,0.50
2023-02-02T10:50:33.048Z,0.30
2023-02-02T10:53:36.295Z,0.47
2023-02-02T10:56:52.485Z,0.57
2023-02-02T11:00:06.537Z,0.52
2023-02-02T11:03:14.370Z,0.32
2023-02-02T11:06:36.633Z,0.30
2023-02-02T11:09:43.704Z,0.57
2023-02-02T11:12:52.946Z,0.50
2023-02-02T11:16:22.577Z,0.60
2023-02-02T11:19:31.188Z,0.95
2023-02-02T11:22:39.499Z,0.30
2023-02-02T11:25:43.961Z,0.70
2023-02-02T11:28:50.873Z,0.77
2023-02-02T11:31:54.123Z,0.47
2023-02-02T11:35:21.597Z,0.40
2023-02-02T11:38:27.441Z,0.60
2023-02-02T11:41:32.930Z,0.43
2023-02-02T11:44:42.777Z,0.70
2023-02-02T11:47:47.385Z,0.50
2023-02-02T11:50:54.610Z,0.50
2023-02-02T11:54:07.667Z,0.38
2023-02-02T11:57:11.677Z,0.47
2023-02-02T12:00:26.985Z,0.45
2023-02-02T12:03:36.794Z,0.60
2023-02-02T12:06:40.876Z,0.40
2023-02-02T12:12:59.833Z,0.35
2023-02-02T12:16:18.675Z,0.60
2023-02-02T12:19:50.571Z,0.50
2023-02-02T12:23:30.282Z,0.35
2023-02-02T12:26:38.993Z,0.40
2023-02-02T12:30:19.143Z,0.40
2023-02-02T12:33:32.579Z,0.73
2023-02-02T12:36:51.156Z,0.73
2023-02-02T12:40:16.295Z,0.75
2023-02-02T12:43:35.405Z,0.50
2023-02-02T12:47:08.773Z,0.50
2023-02-02T12:50:31.523Z,0.40
2023-02-02T12:54:33.815Z,0.35
2023-02-02T12:57:37.342Z,0.40
2023-02-02T13:01:45.712Z,0.43
2023-02-02T13:05:12.665Z,0.52
2023-02-02T13:08:22.548Z,0.60
2023-02-02T13:11:38.537Z,0.40
2023-02-02T13:14:47.788Z,0.70
2023-02-02T13:17:56.746Z,0.65
2023-02-02T13:21:06.562Z,0.57
2023-02-02T13:24:19.253Z,0.63
2023-02-02T13:27:24.872Z,0.50
2023-02-02T13:30:35.364Z,0.45
2023-02-02T13:33:44.684Z,0.60
2023-02-02T13:36:54.194Z,0.77
2023-02-02T13:40:02.444Z,0.52
2023-02-02T13:43:25.763Z,0.90
2023-02-02T13:46:40.784Z,0.70
2023-02-02T13:49:52.142Z,0.70
2023-02-02T13:53:19.509Z,1.10
2023-02-02T13:56:45.646Z,0.70
2023-02-02T14:00:05.278Z,0.52
2023-02-02T14:03:33.603Z,1.27
2023-02-02T14:06:59.104Z,0.70
2023-02-02T14:10:04.318Z,1.02
2023-02-02T14:13:34.994Z,0.88
2023-02-02T14:16:52.270Z,0.68
2023-02-02T14:19:57.848Z,0.73
2023-02-02T14:23:02.586Z,0.77
2023-02-02T14:26:09.437Z,1.00
2023-02-02T14:29:59.836Z,0.88
2023-02-02T14:33:28.249Z,1.50
2023-02-02T14:36:32.416Z,1.67
2023-02-02T14:43:21.030Z,1.52
2023-02-02T14:46:35.567Z,1.20
2023-02-02T14:49:38.998Z,1.00
2023-02-02T14:52:42.528Z,1.00
2023-02-02T14:56:02.056Z,1.00
2023-02-02T14:59:07.382Z,1.25
2023-02-02T15:02:19.948Z,0.70
2023-02-02T15:05:46.365Z,0.80
2023-02-02T15:09:41.968Z,0.85
2023-02-02T15:16:04.449Z,1.20
2023-02-02T15:19:21.484Z,1.05
2023-02-02T15:22:33.156Z,1.50
2023-02-02T15:25:44.690Z,1.00
2023-02-02T15:28:57.177Z,1.85
2023-02-02T15:32:02.237Z,2.10
2023-02-02T15:35:15.994Z,0.98
2023-02-02T15:38:22.544Z,0.95
2023-02-02T15:41:33.114Z,1.00
2023-02-02T15:44:39.304Z,1.05
2023-02-02T15:47:43.449Z,1.30
2023-02-02T15:50:47.649Z,1.10
2023-02-02T15:53:54.690Z,1.20
2023-02-02T15:57:01.131Z,1.00
2023-02-02T16:00:28.054Z,0.70
2023-02-02T16:03:44.133Z,0.85
2023-02-02T16:06:48.201Z,0.70
2023-02-02T16:12:55.246Z,1.00
2023-02-02T16:16:03.972Z,1.33
2023-02-02T16:19:16.494Z,1.38
2023-02-02T16:22:25.395Z,0.70
2023-02-02T16:25:31.811Z,0.95
2023-02-02T16:28:36.361Z,0.70
2023-02-02T16:31:41.036Z,0.80
2023-02-02T16:34:47.246Z,1.42
2023-02-02T16:37:50.531Z,1.60
2023-02-02T16:41:07.834Z,1.20
2023-02-02T16:44:32.586Z,1.00
2023-02-02T16:47:40.177Z,1.23
2023-02-02T16:51:03.470Z,1.38
2023-02-02T16:54:20.860Z,1.60
2023-02-02T16:57:29.249Z,1.55
2023-02-02T17:00:33.719Z,2.35
2023-02-02T17:03:52.538Z,2.95
2023-02-02T17:06:58.861Z,2.13
2023-02-02T17:10:23.995Z,2.22
2023-02-02T17:13:41.974Z,1.55
2023-02-02T17:16:45.336Z,1.58
2023-02-02T17:19:49.722Z,1.65
2023-02-02T17:22:56.722Z,1.67
2023-02-02T17:26:00.992Z,1.48
2023-02-02T17:29:07.026Z,2.10
2023-02-02T17:32:14.148Z,2.08
2023-02-02T17:35:37.148Z,3.60
2023-02-02T17:38:46.854Z,5.57
2023-02-02T17:41:51.385Z,9.30
2023-02-02T17:44:55.035Z,9.57
2023-02-02T17:47:58.452Z,12.43
2023-02-02T17:51:07.342Z,12.80
2023-02-02T17:54:15.983Z,11.30
2023-02-02T17:57:20.027Z,11.15
2023-02-02T18:00:25.778Z,11.18
2023-02-02T18:03:34.450Z,10.43
2023-02-02T18:06:38.969Z,11.35
2023-02-02T18:09:42.611Z,12.13
2023-02-02T18:12:45.889Z,12.00
2023-02-02T18:15:50.227Z,11.83
2023-02-02T18:18:54.352Z,11.65
2023-02-02T18:25:01.706Z,10.48
2023-02-02T18:28:05.279Z,9.60
2023-02-02T18:31:10.681Z,9.82
2023-02-02T18:34:14.069Z,8.73
2023-02-02T18:37:18.552Z,7.93
2023-02-02T18:40:23.765Z,17.13
2023-02-02T18:43:27.490Z,9.90
2023-02-02T18:46:33.822Z,9.13
2023-02-02T18:49:38.597Z,10.25
2023-02-02T18:52:43.312Z,9.82
2023-02-02T18:55:47.184Z,10.07
2023-02-02T18:58:59.742Z,9.82
2023-02-02T19:02:04.007Z,8.88
2023-02-02T19:05:26.792Z,10.75
2023-02-02T19:08:33.568Z,11.88
2023-02-02T19:11:42.917Z,13.20
2023-02-02T19:14:46.685Z,15.80
2023-02-02T19:17:52.860Z,14.70
2023-02-02T19:20:55.995Z,14.27
2023-02-02T19:24:01.143Z,13.37
2023-02-02T19:27:15.652Z,12.63
2023-02-02T19:30:23.158Z,11.80
2023-02-02T19:33:41.420Z,10.27
2023-02-02T19:36:46.205Z,9.50
2023-02-02T19:39:51.027Z,9.70
2023-02-02T19:43:00.624Z,9.90
2023-02-02T19:46:10.687Z,11.25
2023-02-02T19:49:19.507Z,12.05
2023-02-02T19:52:26.855Z,11.60
2023-02-02T19:55:37.363Z,10.82
2023-02-02T19:58:40.823Z,10.35
2023-02-02T20:01:45.898Z,11.32
2023-02-02T20:04:59.670Z,10.13
2023-02-02T20:08:09.295Z,13.27
2023-02-02T20:11:32.155Z,15.48
2023-02-02T20:14:36.829Z,15.18
2023-02-02T20:17:41.799Z,15.25
2023-02-02T20:20:50.037Z,16.35
2023-02-02T20:23:53.310Z,14.82
2023-02-02T20:27:06.122Z,16.30
2023-02-02T20:30:25.599Z,16.30
2023-02-02T20:33:29.294Z,14.30
2023-02-02T20:36:41.789Z,15.68
2023-02-02T20:39:49.858Z,13.52
2023-02-02T20:42:54.410Z,12.98
2023-02-02T20:45:58.352Z,12.15
2023-02-02T20:52:23.841Z,10.48
2023-02-02T20:55:28.230Z,9.75
2023-02-02T20:58:32.702Z,9.27
2023-02-02T21:01:36.094Z,8.63
2023-02-02T21:04:39.120Z,11.75
2023-02-02T21:07:45.039Z,10.23
2023-02-02T21:10:50.548Z,9.15
2023-02-02T21:13:56.104Z,8.20
2023-02-02T21:17:14.004Z,5.72
2023-02-02T21:20:25.257Z,4.65
2023-02-02T21:23:30.460Z,2.95
2023-02-02T21:26:33.995Z,2.70
2023-02-02T21:29:39.421Z,2.45
2023-02-02T21:32:58.863Z,1.80
2023-02-02T21:36:31.061Z,1.90
2023-02-02T21:39:40.306Z,2.60
2023-02-02T21:42:52.624Z,2.33
2023-02-02T21:46:02.341Z,2.08
2023-02-02T21:49:21.772Z,1.65
2023-02-02T21:52:26.834Z,1.60
2023-02-02T21:55:36.754Z,1.80
2023-02-02T21:58:40.861Z,1.50
2023-02-02T22:04:50.331Z,2.17
2023-02-02T22:07:58.480Z,1.95
2023-02-02T22:11:03.380Z,2.53
2023-02-02T22:14:19.915Z,1.90
2023-02-02T22:17:27.694Z,2.50
2023-02-02T22:20:35.871Z,2.42
2023-02-02T22:23:40.830Z,2.50
2023-02-02T22:26:44.225Z,1.83
2023-02-02T22:29:47.504Z,2.28
2023-02-02T22:32:52.194Z,2.20
2023-02-02T22:35:57.600Z,2.08
2023-02-02T22:39:03.743Z,2.25
2023-02-02T22:42:08.304Z,1.90
2023-02-02T22:45:14.675Z,2.08
2023-02-02T22:48:24.021Z,2.15
2023-02-02T22:51:28.540Z,1.63
2023-02-02T22:54:32.039Z,2.28
2023-02-02T22:57:35.956Z,2.55
2023-02-02T23:00:39.719Z,2.55
2023-02-02T23:03:44.237Z,2.10
2023-02-02T23:06:47.602Z,2.05
2023-02-02T23:09:51.092Z,1.80
2023-02-02T23:12:58.286Z,2.00
2023-02-02T23:16:02.302Z,2.67
2023-02-02T23:19:06.949Z,2.25
2023-02-02T23:22:10.125Z,2.20
2023-02-02T23:25:14.449Z,2.20
2023-02-02T23:28:17.562Z,1.83
2023-02-02T23:31:20.880Z,1.80
2023-02-02T23:34:25.437Z,1.88
2023-02-02T23:37:28.696Z,1.70
2023-02-02T23:40:31.861Z,1.60
2023-02-02T23:43:35.318Z,2.00
2023-02-02T23:46:39.800Z,2.03
2023-02-02T23:49:44.785Z,1.85
2023-02-02T23:52:47.888Z,1.88
2023-02-02T23:55:51.056Z,1.73
2023-02-02T23:58:54.234Z,1.87
